Time;durP1;ratioP1;P1;durP2;ratioP2;P2;SDS_P1;SDS_P2;PMS_P1;PMS_P2;Temp;Humidity;BMP_temperature;BMP_pressure;BME280_temperature;BME280_humidity;BME280_pressure;Samples;Min_cycle;Max_cycle;Signal;HPM_P1;HPM_P2
2021/11/04 00:07:17;;;;;;;37.30;25.38;;;7.30;99.90;;;;;;4879781;29;20077;-88
2021/11/04 00:14:27;;;;;;;35.95;24.35;;;7.50;99.90;;;;;;4861057;29;20056;-88
2021/11/04 00:17:19;;;;;;;;;;;;;;;;;;;;;
2021/11/04 00:27:11;;;;;;;31.05;23.02;;;7.50;99.90;;;;;;5028813;28;20060;-86
2021/11/04 00:29:42;;;;;;;33.45;23.70;;;7.40;99.90;;;;;;5052743;28;20049;-88
2021/11/04 00:32:23;;;;;;;33.50;24.35;;;7.40;99.90;;;;;;5041650;28;20044;-82
2021/11/04 00:38:54;;;;;;;33.60;23.75;;;7.10;99.90;;;;;;4954405;28;20049;-82
2021/11/04 00:41:57;;;;;;;31.40;22.80;;;8.20;99.90;;;;;;4944716;28;20034;-82
2021/11/04 00:44:43;;;;;;;;;;;;;;;;;;;;;
2021/11/04 00:47:15;;;;;;;37.13;25.83;;;7.40;99.90;;;;;;4979578;28;20125;-89
2021/11/04 00:49:42;;;;;;;33.17;23.17;;;7.50;99.90;;;;;;5018511;28;20515;-89
2021/11/04 00:52:46;;;;;;;34.97;24.65;;;7.80;99.90;;;;;;5071625;28;20550;-89
2021/11/04 00:55:12;;;;;;;33.22;24.48;;;7.50;99.90;;;;;;4984851;28;20078;-90
2021/11/04 00:58:02;;;;;;;35.63;25.30;;;7.50;99.90;;;;;;5016075;28;20048;-82
2021/11/04 01:00:49;;;;;;;;;;;;;;;;;;;;;
2021/11/04 01:07:23;;;;;;;34.13;23.75;;;7.50;99.90;;;;;;5070928;28;20503;-82
2021/11/04 01:09:52;;;;;;;33.25;23.77;;;7.50;99.90;;;;;;5043026;28;20044;-82
2021/11/04 01:12:46;;;;;;;32.00;22.75;;;7.50;99.90;;;;;;5068129;28;20039;-82
2021/11/04 01:15:15;;;;;;;34.05;24.30;;;7.50;99.90;;;;;;5066783;28;20056;-88
2021/11/04 01:17:50;;;;;;;34.95;24.30;;;8.00;99.90;;;;;;5060615;28;20051;-88
2021/11/04 01:20:45;;;;;;;33.08;24.10;;;7.50;99.90;;;;;;5036681;28;20038;-88
2021/11/04 01:23:16;;;;;;;33.65;24.23;;;7.50;99.90;;;;;;5043863;28;20381;-89
2021/11/04 01:25:51;;;;;;;34.55;25.02;;;7.50;99.90;;;;;;5061090;28;20036;-88
2021/11/04 01:28:39;;;;;;;29.63;22.20;;;7.50;99.90;;;;;;5026383;28;20123;-88
2021/11/04 01:31:38;;;;;;;29.08;21.25;;;7.70;99.90;;;;;;5024702;28;20041;-87
2021/11/04 01:34:25;;;;;;;28.75;20.30;;;8.00;99.90;;;;;;5061404;28;20039;-87
2021/11/04 01:37:00;;;;;;;31.70;21.73;;;7.50;99.90;;;;;;5049381;28;20051;-86
2021/11/04 01:39:31;;;;;;;29.60;21.42;;;7.60;99.90;;;;;;5060886;28;20452;-87
2021/11/04 01:42:12;;;;;;;;;;;;;;;;;;;;;
2021/11/04 01:44:49;;;;;;;29.92;22.60;;;7.80;99.90;;;;;;5077242;28;20047;-87
2021/11/04 01:47:38;;;;;;;29.95;22.00;;;8.60;99.90;;;;;;5040699;28;20059;-87
2021/11/04 01:50:17;;;;;;;31.00;22.23;;;7.30;99.90;;;;;;5040391;28;20127;-87
2021/11/04 01:53:29;;;;;;;30.50;22.00;;;7.10;99.90;;;;;;5040341;28;20044;-87
2021/11/04 01:56:03;;;;;;;32.63;22.10;;;7.00;99.90;;;;;;5008883;28;20105;-82
2021/11/04 01:59:17;;;;;;;;;;;;;;;;;;;;;
2021/11/04 02:02:15;;;;;;;33.33;22.30;;;8.10;99.90;;;;;;5071741;28;20072;-82
2021/11/04 02:04:58;;;;;;;32.67;22.73;;;7.10;99.90;;;;;;5065396;28;20044;-82
2021/11/04 02:07:55;;;;;;;34.13;23.30;;;7.50;99.90;;;;;;5059074;28;20042;-82
2021/11/04 02:10:43;;;;;;;33.67;23.92;;;7.60;99.90;;;;;;5057280;28;20040;-86
2021/11/04 02:13:37;;;;;;;35.80;24.42;;;7.90;99.90;;;;;;5040129;28;20481;-82
2021/11/04 02:16:59;;;;;;;35.33;25.45;;;7.70;99.90;;;;;;5042430;28;20045;-82
2021/11/04 02:19:49;;;;;;;34.38;24.92;;;7.50;99.90;;;;;;5032657;28;20047;-82
2021/11/04 02:23:03;;;;;;;39.70;25.30;;;7.50;99.90;;;;;;5020283;28;20470;-82
2021/11/04 02:25:33;;;;;;;33.05;23.60;;;7.90;99.90;;;;;;5005612;28;20393;-82
2021/11/04 02:28:13;;;;;;;36.00;25.02;;;7.50;99.90;;;;;;5014479;28;20037;-82
2021/11/04 02:30:58;;;;;;;34.42;24.25;;;7.80;99.90;;;;;;5038650;28;20040;-82
2021/11/04 02:34:07;;;;;;;38.30;26.83;;;7.40;99.90;;;;;;5031546;28;20033;-82
2021/11/04 02:36:36;;;;;;;35.70;24.75;;;7.60;99.90;;;;;;5035747;28;20036;-82
2021/11/04 02:39:23;;;;;;;33.00;23.80;;;7.50;99.90;;;;;;5042734;28;20391;-82
2021/11/04 02:41:54;;;;;;;35.10;24.67;;;7.50;99.90;;;;;;5034601;28;20048;-82
2021/11/04 02:44:46;;;;;;;36.63;25.65;;;7.40;99.90;;;;;;5025743;28;20119;-83
2021/11/04 02:47:23;;;;;;;35.47;24.65;;;7.20;99.90;;;;;;5024375;28;20473;-87
2021/11/04 02:50:10;;;;;;;35.22;24.73;;;8.50;99.90;;;;;;5026371;28;20041;-87
2021/11/04 02:52:49;;;;;;;35.08;24.02;;;7.50;99.90;;;;;;5062737;28;20037;-83
2021/11/04 02:55:47;;;;;;;33.78;24.13;;;7.10;99.90;;;;;;5011890;28;20037;-83
2021/11/04 02:58:28;;;;;;;33.92;23.00;;;7.50;99.90;;;;;;5020923;28;20036;-83
2021/11/04 03:01:29;;;;;;;35.40;24.77;;;7.50;99.90;;;;;;5045363;28;20115;-83
2021/11/04 03:04:17;;;;;;;34.35;23.38;;;7.30;99.90;;;;;;5033831;28;20040;-83
2021/11/04 03:07:01;;;;;;;;;;;;;;;;;;;;;
2021/11/04 03:09:35;;;;;;;35.88;24.92;;;7.50;99.90;;;;;;5052096;28;20431;-83
2021/11/04 03:12:41;;;;;;;37.55;26.05;;;7.50;99.90;;;;;;5024730;28;20052;-87
2021/11/04 03:15:32;;;;;;;41.85;26.75;;;7.50;99.90;;;;;;5019555;28;20482;-87
2021/11/04 03:18:31;;;;;;;38.63;26.13;;;7.50;99.90;;;;;;5002809;28;20479;-87
2021/11/04 03:24:09;;;;;;;36.70;25.00;;;7.50;99.90;;;;;;5044101;28;20044;-87
2021/11/04 03:31:33;;;;;;;39.47;26.20;;;7.50;99.90;;;;;;5071009;28;20424;-87
2021/11/04 03:34:17;;;;;;;38.57;26.67;;;7.50;99.90;;;;;;5038078;28;20485;-87
2021/11/04 03:37:04;;;;;;;39.78;26.60;;;8.20;99.90;;;;;;5054026;28;20045;-87
2021/11/04 03:40:17;;;;;;;;;;;;;;;;;;;;;
2021/11/04 03:46:48;;;;;;;35.63;24.75;;;8.20;99.90;;;;;;5110227;28;20061;-86
2021/11/04 03:49:21;;;;;;;38.30;26.08;;;7.60;99.90;;;;;;5075964;28;20092;-86
2021/11/04 03:51:55;;;;;;;39.20;25.30;;;7.50;99.90;;;;;;5077550;28;20399;-87
2021/11/04 03:54:27;;;;;;;42.20;27.05;;;8.60;99.90;;;;;;5095101;28;20425;-86
2021/11/04 03:57:02;;;;;;;41.78;27.00;;;7.50;99.90;;;;;;5077373;28;20049;-87
2021/11/04 03:59:34;;;;;;;40.13;26.67;;;7.90;99.90;;;;;;5076508;28;20035;-87
2021/11/04 04:02:26;;;;;;;;;;;;;;;;;;;;;
2021/11/04 04:05:26;;;;;;;;;;;;;;;;;;;;;
2021/11/04 04:08:09;;;;;;;41.72;27.50;;;7.40;99.90;;;;;;5077318;28;20048;-88
2021/11/04 04:11:28;;;;;;;;;;;;;;;;;;;;;
2021/11/04 04:14:30;;;;;;;35.88;24.23;;;7.50;99.90;;;;;;5091824;28;20051;-83
2021/11/04 04:17:15;;;;;;;36.15;24.92;;;7.50;99.90;;;;;;5068504;28;20500;-83
2021/11/04 04:20:25;;;;;;;34.22;24.10;;;7.50;99.90;;;;;;5075106;28;20043;-83
2021/11/04 04:23:09;;;;;;;;;;;;;;;;;;;;;
2021/11/04 04:25:39;;;;;;;34.13;24.00;;;7.40;99.90;;;;;;5080389;28;20424;-88
2021/11/04 04:31:16;;;;;;;30.90;22.27;;;7.50;99.90;;;;;;5085586;28;20127;-88
2021/11/04 04:33:47;;;;;;;;;;;7.40;99.90;;;;;;5062897;28;20084;-82
2021/11/04 04:36:29;;;;;;;35.25;23.55;;;7.40;99.90;;;;;;5074870;28;20252;-82
2021/11/04 04:39:03;;;;;;;39.17;24.15;;;7.50;99.90;;;;;;5063205;28;20067;-82
2021/11/04 04:41:39;;;;;;;38.35;26.30;;;8.40;99.90;;;;;;5097970;28;20071;-82
2021/11/04 04:44:10;;;;;;;40.88;24.88;;;7.30;99.90;;;;;;5055299;28;20144;-82
2021/11/04 04:46:44;;;;;;;35.80;25.02;;;7.40;99.90;;;;;;5069292;28;20684;-82
2021/11/04 04:49:45;;;;;;;38.33;24.13;;;7.40;99.90;;;;;;5062467;28;20388;-82
2021/11/04 04:52:37;;;;;;;35.85;23.65;;;7.50;99.90;;;;;;5060426;28;20036;-82
2021/11/04 04:55:14;;;;;;;35.50;23.15;;;7.50;99.90;;;;;;5077444;28;20488;-82
2021/11/04 04:58:13;;;;;;;;;;;;;;;;;;;;;
2021/11/04 05:00:55;;;;;;;38.80;24.88;;;7.50;99.90;;;;;;5093292;28;20051;-82
2021/11/04 05:03:43;;;;;;;;;;;;;;;;;;;;;
2021/11/04 05:06:33;;;;;;;;;;;;;;;;;;;;;
2021/11/04 05:12:05;;;;;;;36.75;24.40;;;7.40;99.90;;;;;;5071128;28;20048;-87
2021/11/04 05:14:36;;;;;;;38.33;25.52;;;7.50;99.90;;;;;;5079365;28;20048;-86
2021/11/04 05:17:36;;;;;;;;;;;;;;;;;;;;;
2021/11/04 05:20:17;;;;;;;39.85;24.80;;;8.50;99.90;;;;;;5085768;28;20134;-86
2021/11/04 05:22:49;;;;;;;38.45;25.77;;;7.40;99.90;;;;;;5074349;28;20031;-82
2021/11/04 05:25:18;;;;;;;38.95;25.25;;;6.80;99.90;;;;;;5079456;28;20038;-87
2021/11/04 05:27:49;;;;;;;34.65;24.58;;;7.40;99.90;;;;;;5101365;28;20365;-87
2021/11/04 05:30:17;;;;;;;33.15;22.92;;;7.30;99.90;;;;;;5083718;28;20044;-87
2021/11/04 05:32:49;;;;;;;32.35;21.67;;;7.50;99.90;;;;;;5100465;28;20035;-87
2021/11/04 05:35:38;;;;;;;30.95;21.85;;;7.40;99.90;;;;;;5074422;28;20040;-87
2021/11/04 05:38:09;;;;;;;;;;;7.40;99.90;;;;;;5062859;28;20036;-87
2021/11/04 05:40:38;;;;;;;31.52;21.45;;;7.30;99.90;;;;;;5080940;28;20420;-88
2021/11/04 05:43:16;;;;;;;30.05;21.00;;;7.30;99.90;;;;;;5083748;28;20391;-88
2021/11/04 05:45:43;;;;;;;30.05;20.83;;;7.30;99.90;;;;;;5101255;28;20035;-88
2021/11/04 05:48:14;;;;;;;30.52;21.20;;;7.10;99.90;;;;;;5081499;28;20139;-88
2021/11/04 05:50:40;;;;;;;30.20;22.08;;;7.30;99.90;;;;;;5091253;28;20131;-88
2021/11/04 05:53:11;;;;;;;31.83;22.60;;;7.30;99.90;;;;;;5096204;28;20084;-89
2021/11/04 05:55:58;;;;;;;;;;;;;;;;;;;;;
2021/11/04 05:58:41;;;;;;;32.35;22.33;;;7.30;99.90;;;;;;5096328;28;20104;-87
2021/11/04 06:01:21;;;;;;;35.33;21.48;;;7.40;99.90;;;;;;5060493;28;20048;-87
2021/11/04 06:04:05;;;;;;;;;;;;;;;;;;;;;
2021/11/04 06:06:39;;;;;;;31.02;21.30;;;7.20;99.90;;;;;;5079249;28;20044;-87
2021/11/04 06:09:32;;;;;;;32.53;21.85;;;7.20;99.90;;;;;;5077119;28;20044;-87
2021/11/04 06:12:12;;;;;;;42.90;23.17;;;7.80;99.90;;;;;;5054021;28;20043;-87
2021/11/04 06:14:39;;;;;;;36.20;23.77;;;7.30;99.90;;;;;;5058636;28;20403;-87
2021/11/04 06:17:12;;;;;;;35.60;23.55;;;6.80;99.90;;;;;;5062504;28;20056;-87
2021/11/04 06:19:38;;;;;;;34.38;23.05;;;7.20;99.90;;;;;;5078059;28;20044;-88
2021/11/04 06:22:10;;;;;;;36.15;24.10;;;7.70;99.90;;;;;;5042882;28;20374;-88
2021/11/04 06:24:43;;;;;;;37.20;24.45;;;7.30;99.90;;;;;;5050636;28;20044;-87
2021/11/04 06:27:12;;;;;;;37.28;24.75;;;7.30;99.90;;;;;;5043684;28;20513;-87
2021/11/04 06:29:44;;;;;;;36.70;24.63;;;7.30;99.90;;;;;;5047070;28;20036;-87
2021/11/04 06:32:13;;;;;;;38.35;24.35;;;7.30;99.90;;;;;;5060530;28;20041;-82
2021/11/04 06:34:55;;;;;;;35.20;22.83;;;8.40;99.90;;;;;;5069354;28;20036;-86
2021/11/04 06:37:26;;;;;;;32.45;22.48;;;6.90;99.90;;;;;;5084448;28;20073;-85
2021/11/04 06:40:03;;;;;;;34.35;23.67;;;7.30;99.90;;;;;;5070201;28;20128;-86
2021/11/04 06:42:29;;;;;;;35.40;23.60;;;7.30;99.90;;;;;;5042799;28;20102;-78
2021/11/04 06:45:08;;;;;;;35.40;22.55;;;7.30;99.90;;;;;;5054753;28;20050;-83
2021/11/04 06:48:11;;;;;;;34.28;21.98;;;8.00;99.90;;;;;;5060341;28;20072;-81
2021/11/04 06:50:46;;;;;;;33.97;22.00;;;7.00;99.90;;;;;;5052071;28;20036;-81
2021/11/04 06:53:21;;;;;;;32.92;20.08;;;7.70;99.90;;;;;;5038261;28;20043;-82
2021/11/04 06:55:59;;;;;;;33.92;20.17;;;7.20;99.90;;;;;;5039553;28;20041;-81
2021/11/04 06:58:30;;;;;;;28.92;19.65;;;8.40;99.90;;;;;;5059446;28;20036;-79
2021/11/04 07:01:03;;;;;;;29.63;19.50;;;7.20;99.90;;;;;;5034373;28;20119;-82
2021/11/04 07:04:22;;;;;;;32.40;19.77;;;7.20;99.90;;;;;;5061646;28;20044;-80
2021/11/04 07:07:11;;;;;;;21.70;16.42;;;7.10;99.90;;;;;;5038561;28;20101;-89
2021/11/04 07:09:42;;;;;;;22.27;16.15;;;7.00;99.90;;;;;;5043128;28;20047;-78
2021/11/04 07:12:11;;;;;;;25.55;17.15;;;7.00;99.90;;;;;;5042500;28;20380;-82
2021/11/04 07:14:42;;;;;;;26.00;16.48;;;7.00;99.90;;;;;;5045996;28;20056;-82
2021/11/04 07:17:14;;;;;;;28.88;15.65;;;7.00;99.90;;;;;;5067168;28;20047;-81
2021/11/04 07:19:42;;;;;;;28.23;15.45;;;7.00;99.90;;;;;;5043412;28;20040;-81
2021/11/04 07:22:46;;;;;;;45.60;14.98;;;7.60;99.90;;;;;;5043585;28;20104;-81
2021/11/04 07:25:17;;;;;;;32.85;14.98;;;7.00;99.90;;;;;;5058498;28;20370;-81
2021/11/04 07:28:00;;;;;;;72.63;15.70;;;7.30;99.90;;;;;;5082751;28;20073;-81
2021/11/04 07:30:32;;;;;;;119.93;17.95;;;6.90;99.90;;;;;;5072222;28;20035;-81
2021/11/04 07:33:06;;;;;;;66.40;14.80;;;6.90;99.90;;;;;;5055879;28;20040;-81
2021/11/04 07:36:02;;;;;;;103.93;15.23;;;6.90;99.90;;;;;;5060076;28;20036;-81
2021/11/04 07:38:55;;;;;;;75.65;12.35;;;6.90;99.90;;;;;;5051905;28;20040;-81
2021/11/04 07:41:23;;;;;;;80.63;12.73;;;7.60;99.90;;;;;;5046845;28;20512;-81
2021/11/04 07:43:49;;;;;;;29.20;11.45;;;7.00;99.90;;;;;;5055750;28;20396;-81
2021/11/04 07:46:37;;;;;;;30.17;11.55;;;7.10;99.90;;;;;;5056610;28;20055;-81
2021/11/04 07:49:06;;;;;;;68.82;11.45;;;6.70;99.90;;;;;;5042546;28;20051;-81
2021/11/04 07:52:10;;;;;;;;;;;;;;;;;;;;;
2021/11/04 07:54:45;;;;;;;63.33;12.45;;;6.70;99.90;;;;;;5052340;28;20112;-80
2021/11/04 07:57:17;;;;;;;57.83;13.60;;;7.20;99.90;;;;;;5058264;28;20119;-81
2021/11/04 07:59:43;;;;;;;49.72;13.40;;;6.70;99.90;;;;;;5056651;28;20389;-80
2021/11/04 08:02:17;;;;;;;56.22;13.77;;;6.80;99.90;;;;;;5036992;28;20094;-80
2021/11/04 08:05:09;;;;;;;50.50;13.95;;;6.80;99.90;;;;;;5058708;28;20082;-80
2021/11/04 08:07:54;;;;;;;33.83;12.38;;;6.90;99.90;;;;;;5049089;28;20028;-81
2021/11/04 08:10:26;;;;;;;46.38;12.85;;;6.90;99.90;;;;;;5040437;28;20051;-80
2021/11/04 08:13:26;;;;;;;40.25;12.23;;;6.90;99.90;;;;;;5059832;28;20049;-81
2021/11/04 08:15:59;;;;;;;41.37;12.43;;;7.30;99.90;;;;;;5058989;28;20040;-80
2021/11/04 08:18:48;;;;;;;49.05;13.38;;;6.80;99.90;;;;;;5042534;28;20036;-81
2021/11/04 08:21:35;;;;;;;39.17;12.55;;;6.90;99.90;;;;;;5040944;28;20052;-81
2021/11/04 08:24:00;;;;;;;30.70;13.13;;;6.80;99.90;;;;;;5059047;28;20036;-82
2021/11/04 08:26:37;;;;;;;41.45;14.10;;;7.10;99.90;;;;;;5055005;28;20044;-82
2021/11/04 08:29:23;;;;;;;58.33;14.27;;;6.60;99.90;;;;;;5045378;28;20075;-84
2021/11/04 08:31:51;;;;;;;40.00;15.38;;;7.00;99.90;;;;;;5050056;28;20376;-84
2021/11/04 08:34:22;;;;;;;25.17;15.45;;;7.00;99.90;;;;;;5070459;28;20036;-84
2021/11/04 08:36:54;;;;;;;43.85;16.17;;;7.10;99.90;;;;;;5057744;28;20173;-86
2021/11/04 08:39:23;;;;;;;28.02;15.88;;;7.10;99.90;;;;;;5083691;28;20107;-90
2021/11/04 08:41:54;;;;;;;56.17;16.15;;;7.20;99.90;;;;;;5046015;28;20044;-90
2021/11/04 08:44:20;;;;;;;68.15;16.48;;;7.20;99.90;;;;;;5050200;28;20040;-89
2021/11/04 08:46:49;;;;;;;78.28;17.25;;;7.20;99.90;;;;;;5056915;28;20040;-89
2021/11/04 08:49:37;;;;;;;50.70;17.77;;;7.50;99.90;;;;;;5065679;28;20117;-82
2021/11/04 08:52:46;;;;;;;31.77;17.13;;;7.20;99.90;;;;;;5065773;28;20040;-82
2021/11/04 08:55:17;;;;;;;30.60;16.92;;;7.20;99.90;;;;;;5025599;28;20048;-82
2021/11/04 08:57:43;;;;;;;37.97;17.90;;;7.20;99.90;;;;;;5063495;28;20098;-82
2021/11/04 09:00:10;;;;;;;31.58;17.15;;;8.20;99.90;;;;;;5046428;28;20424;-82
2021/11/04 09:02:46;;;;;;;31.70;17.35;;;7.40;99.90;;;;;;5051774;28;20042;-82
2021/11/04 09:08:41;;;;;;;24.98;14.80;;;7.30;99.90;;;;;;5055094;28;20211;-82
2021/11/04 09:11:25;;;;;;;22.13;14.45;;;7.30;99.90;;;;;;5055205;28;20126;-82
2021/11/04 09:13:54;;;;;;;27.23;14.48;;;7.30;99.90;;;;;;5043401;28;20480;-82
2021/11/04 09:16:27;;;;;;;23.88;15.13;;;7.30;99.90;;;;;;5057242;28;20075;-82
2021/11/04 09:18:56;;;;;;;23.85;15.07;;;8.00;99.90;;;;;;5069000;28;20119;-82
2021/11/04 09:21:27;;;;;;;25.77;15.00;;;7.40;99.90;;;;;;5051788;28;20124;-82
2021/11/04 09:24:00;;;;;;;24.15;13.15;;;7.30;99.90;;;;;;5051757;28;20028;-82
2021/11/04 09:26:31;;;;;;;18.50;12.95;;;7.40;99.90;;;;;;5037263;28;20091;-82
2021/11/04 09:29:12;;;;;;;20.38;14.13;;;7.70;99.90;;;;;;5045463;28;20064;-82
2021/11/04 09:31:38;;;;;;;22.33;14.10;;;7.40;99.90;;;;;;5054678;28;20040;-82
2021/11/04 09:34:24;;;;;;;20.70;13.60;;;7.40;99.90;;;;;;5039927;28;20044;-85
2021/11/04 09:36:50;;;;;;;;;;;7.50;99.90;;;;;;5029114;28;20055;-78
2021/11/04 09:39:16;;;;;;;23.67;14.27;;;7.70;99.90;;;;;;5058069;28;19916;-76
2021/11/04 09:41:43;;;;;;;28.15;14.50;;;7.90;99.90;;;;;;5054462;28;20060;-77
2021/11/04 09:44:11;;;;;;;25.63;15.23;;;7.60;99.90;;;;;;5062665;28;20137;-76
2021/11/04 09:46:39;;;;;;;24.70;14.75;;;7.70;99.90;;;;;;5067526;28;20416;-77
2021/11/04 09:49:08;;;;;;;23.15;15.63;;;7.70;99.90;;;;;;5074934;28;20032;-79
2021/11/04 09:51:34;;;;;;;24.40;16.08;;;7.70;99.90;;;;;;5065411;28;20128;-81
2021/11/04 09:54:01;;;;;;;25.25;17.83;;;8.50;99.90;;;;;;5088240;28;20067;-82
2021/11/04 09:56:27;;;;;;;31.50;20.25;;;7.80;99.90;;;;;;5080309;28;20033;-82
2021/11/04 09:58:52;;;;;;;31.40;18.17;;;7.80;99.90;;;;;;5057667;28;20040;-81
2021/11/04 10:01:22;;;;;;;34.28;22.80;;;7.70;99.90;;;;;;5060544;28;20388;-81
2021/11/04 10:03:50;;;;;;;36.80;23.80;;;7.80;99.90;;;;;;5047870;28;20488;-81
2021/11/04 10:06:34;;;;;;;39.72;23.20;;;8.10;99.90;;;;;;5080408;28;20037;-81
2021/11/04 10:09:24;;;;;;;34.70;22.20;;;8.60;99.90;;;;;;5071840;28;20153;-82
2021/11/04 10:12:05;;;;;;;33.80;22.95;;;7.80;99.90;;;;;;5063280;28;20047;-82
2021/11/04 10:14:38;;;;;;;41.50;25.65;;;8.00;99.90;;;;;;5049451;28;20095;-81
2021/11/04 10:17:04;;;;;;;39.80;25.05;;;7.80;99.90;;;;;;5063054;28;20048;-77
2021/11/04 10:19:41;;;;;;;47.60;25.23;;;7.90;99.90;;;;;;5068038;28;20101;-77
2021/11/04 10:22:07;;;;;;;42.55;26.35;;;7.90;99.90;;;;;;5062083;28;20041;-77
2021/11/04 10:24:33;;;;;;;41.90;26.05;;;7.90;99.90;;;;;;5055946;28;20072;-78
2021/11/04 10:26:58;;;;;;;39.35;25.23;;;8.10;99.90;;;;;;5044819;28;20128;-77
2021/11/04 10:29:26;;;;;;;41.95;26.27;;;8.00;99.90;;;;;;5053811;28;20040;-78
2021/11/04 10:32:00;;;;;;;42.80;26.08;;;8.00;99.90;;;;;;5069152;28;20032;-84
2021/11/04 10:34:33;;;;;;;46.95;25.90;;;8.00;99.90;;;;;;5071224;28;20035;-83
2021/11/04 10:37:16;;;;;;;38.90;23.95;;;8.10;99.90;;;;;;5040211;28;20044;-84
2021/11/04 10:39:42;;;;;;;37.67;22.90;;;8.10;99.90;;;;;;5063782;28;20055;-85
2021/11/04 10:42:08;;;;;;;36.72;23.60;;;8.10;99.90;;;;;;5049443;28;20482;-84
2021/11/04 10:44:40;;;;;;;35.92;22.35;;;8.20;99.90;;;;;;5063854;28;20064;-84
2021/11/04 10:47:16;;;;;;;27.80;18.85;;;8.30;99.90;;;;;;5067859;28;20129;-81
2021/11/04 10:49:52;;;;;;;28.38;17.52;;;8.40;99.90;;;;;;5068265;28;20040;-90
2021/11/04 10:52:30;;;;;;;25.50;15.13;;;8.40;99.90;;;;;;5049812;28;20396;-89
2021/11/04 10:54:57;;;;;;;20.60;12.82;;;8.40;99.90;;;;;;5063783;28;20036;-90
2021/11/04 10:57:45;;;;;;;19.02;11.85;;;8.10;99.90;;;;;;5072554;28;20124;-90
2021/11/04 11:00:22;;;;;;;19.20;12.18;;;8.50;99.90;;;;;;5062922;28;20115;-89
2021/11/04 11:02:57;;;;;;;18.48;11.75;;;8.50;99.90;;;;;;5047222;28;20051;-90
2021/11/04 11:05:42;;;;;;;18.13;11.85;;;8.60;99.90;;;;;;5075261;28;20070;-90
2021/11/04 11:08:21;;;;;;;;;;;;;;;;;;;;;
2021/11/04 11:10:53;;;;;;;22.77;11.65;;;8.70;99.90;;;;;;5043978;28;20441;-90
2021/11/04 11:13:23;;;;;;;19.75;12.32;;;8.80;99.90;;;;;;5048605;28;20063;-89
2021/11/04 11:15:56;;;;;;;19.60;12.55;;;8.80;99.90;;;;;;5074850;28;20048;-90
2021/11/04 11:18:27;;;;;;;21.40;13.07;;;9.90;99.90;;;;;;5067184;28;20515;-89
2021/11/04 11:21:01;;;;;;;16.40;10.13;;;8.90;99.90;;;;;;5039395;28;20036;-90
2021/11/04 11:23:30;;;;;;;18.08;8.95;;;9.20;99.90;;;;;;5043393;28;20492;-90
2021/11/04 11:25:57;;;;;;;19.05;9.35;;;9.50;99.90;;;;;;5008332;28;20060;-82
2021/11/04 11:28:30;;;;;;;16.08;9.32;;;9.10;99.90;;;;;;5010482;28;20081;-81
2021/11/04 11:31:31;;;;;;;16.40;10.00;;;8.60;99.90;;;;;;4990459;28;20493;-81
2021/11/04 11:34:19;;;;;;;12.05;7.75;;;8.90;99.90;;;;;;4990738;28;20045;-81
2021/11/04 11:37:14;;;;;;;11.98;8.15;;;9.10;99.90;;;;;;4981572;28;20118;-81
2021/11/04 11:40:03;;;;;;;14.52;6.70;;;9.00;99.90;;;;;;4989723;28;20037;-81
2021/11/04 11:42:34;;;;;;;8.55;5.28;;;9.20;99.90;;;;;;5000687;28;20053;-81
2021/11/04 11:45:13;;;;;;;9.07;6.10;;;9.40;99.90;;;;;;5023723;28;20061;-81
2021/11/04 11:47:53;;;;;;;;;;;;;;;;;;;;;
2021/11/04 11:51:16;;;;;;;6.45;3.92;;;9.30;99.90;;;;;;5020472;28;20045;-81
2021/11/04 11:53:56;;;;;;;5.05;3.80;;;9.30;99.90;;;;;;4939432;28;20039;-81
2021/11/04 11:56:27;;;;;;;9.73;5.03;;;9.40;99.90;;;;;;4990577;28;20516;-81
2021/11/04 11:59:18;;;;;;;8.20;5.07;;;10.40;99.90;;;;;;5000103;28;20636;-81
2021/11/04 12:02:13;;;;;;;;;;;;;;;;;;;;;
2021/11/04 12:05:25;;;;;;;4.18;2.45;;;9.70;99.90;;;;;;5048613;28;20040;-81
2021/11/04 12:08:51;;;;;;;;;;;;;;;;;;;;;
2021/11/04 12:11:55;;;;;;;5.72;3.70;;;9.50;99.90;;;;;;5047107;28;20048;-82
2021/11/04 12:15:04;;;;;;;7.18;4.40;;;9.50;99.90;;;;;;5070014;28;20040;-82
2021/11/04 12:18:39;;;;;;;8.05;5.30;;;9.50;99.90;;;;;;5053512;28;20048;-81
2021/11/04 12:22:02;;;;;;;9.05;5.82;;;9.50;99.90;;;;;;5074301;28;20082;-82
2021/11/04 12:25:07;;;;;;;12.57;5.70;;;9.60;99.90;;;;;;4981705;28;20080;-90
2021/11/04 12:27:52;;;;;;;8.77;5.30;;;9.70;99.90;;;;;;5044964;28;20063;-82
2021/11/04 12:30:33;;;;;;;8.20;5.40;;;9.60;99.90;;;;;;5073110;28;20044;-82
2021/11/04 12:33:20;;;;;;;8.70;5.38;;;9.80;99.90;;;;;;5064744;28;20043;-82
2021/11/04 12:36:17;;;;;;;7.32;4.70;;;9.70;99.90;;;;;;5057742;28;20090;-82
2021/11/04 12:38:49;;;;;;;8.05;5.45;;;9.80;99.90;;;;;;5059405;28;20583;-82
2021/11/04 12:41:24;;;;;;;10.80;5.80;;;9.80;99.90;;;;;;5060857;28;20434;-82
2021/11/04 12:44:17;;;;;;;10.77;5.37;;;9.80;99.90;;;;;;5040833;28;20037;-82
2021/11/04 12:46:55;;;;;;;8.10;6.10;;;9.40;99.90;;;;;;5050484;28;20343;-82
2021/11/04 12:50:15;;;;;;;7.82;5.65;;;9.80;99.90;;;;;;5056909;28;20039;-82
2021/11/04 12:53:05;;;;;;;8.90;5.40;;;9.50;99.90;;;;;;5040972;28;20117;-82
2021/11/04 12:55:44;;;;;;;7.93;4.78;;;9.90;99.90;;;;;;4997424;28;20041;-82
2021/11/04 12:58:23;;;;;;;7.57;5.57;;;10.10;99.90;;;;;;4996869;28;20399;-82
2021/11/04 13:01:00;;;;;;;11.05;8.27;;;10.10;99.90;;;;;;4998452;28;20515;-82
2021/11/04 13:03:32;;;;;;;12.50;8.07;;;10.30;99.90;;;;;;5016574;28;20422;-82
2021/11/04 13:05:58;;;;;;;12.25;8.85;;;10.00;99.90;;;;;;5014857;28;20049;-82
2021/11/04 13:08:25;;;;;;;12.25;8.52;;;10.10;99.90;;;;;;5000294;28;20430;-90
2021/11/04 13:10:53;;;;;;;14.95;9.35;;;10.10;99.90;;;;;;5016236;28;20107;-91
2021/11/04 13:13:30;;;;;;;14.93;8.57;;;10.10;99.90;;;;;;5016771;28;20116;-90
2021/11/04 13:15:59;;;;;;;12.77;8.77;;;10.20;99.90;;;;;;4998005;28;20058;-90
2021/11/04 13:18:25;;;;;;;10.70;7.70;;;10.30;99.90;;;;;;4985783;28;20112;-91
2021/11/04 13:20:56;;;;;;;10.07;7.22;;;10.40;99.90;;;;;;4995292;28;20053;-90
2021/11/04 13:23:27;;;;;;;13.95;8.57;;;10.40;99.90;;;;;;4984594;28;20477;-90
2021/11/04 13:26:30;;;;;;;8.90;6.68;;;11.30;99.90;;;;;;5028629;28;20499;-90
2021/11/04 13:28:59;;;;;;;10.52;6.80;;;10.40;99.90;;;;;;5065929;28;20048;-90
2021/11/04 13:31:25;;;;;;;8.02;6.45;;;10.50;99.90;;;;;;5038328;28;20043;-90
2021/11/04 13:34:12;;;;;;;9.68;6.53;;;10.80;99.90;;;;;;5034518;28;20484;-90
2021/11/04 13:37:11;;;;;;;11.23;7.10;;;10.90;99.90;;;;;;5060885;28;20404;-89
2021/11/04 13:40:00;;;;;;;9.60;6.75;;;10.30;99.90;;;;;;5038691;28;20045;-90
2021/11/04 13:42:26;;;;;;;12.30;7.90;;;10.30;99.90;;;;;;5058278;28;20093;-90
2021/11/04 13:45:23;;;;;;;13.02;7.47;;;10.50;99.90;;;;;;5069304;28;20126;-90
2021/11/04 13:47:51;;;;;;;11.55;7.30;;;10.10;99.90;;;;;;5060449;28;20044;-88
2021/11/04 13:50:17;;;;;;;11.90;7.18;;;10.10;99.90;;;;;;5092157;28;20072;-88
2021/11/04 13:52:44;;;;;;;13.82;7.00;;;10.10;99.90;;;;;;5073269;28;20033;-82
2021/11/04 13:55:29;;;;;;;11.65;7.15;;;10.10;99.90;;;;;;5056322;28;20036;-81
2021/11/04 13:57:56;;;;;;;12.23;6.95;;;10.00;99.90;;;;;;5082024;28;20122;-80
2021/11/04 14:00:27;;;;;;;10.50;7.10;;;10.00;99.90;;;;;;5093832;28;20036;-80
2021/11/04 14:03:01;;;;;;;11.70;7.88;;;9.60;99.90;;;;;;5072842;28;20132;-80
2021/11/04 14:05:53;;;;;;;11.38;8.70;;;10.90;99.90;;;;;;5074075;28;20083;-80
2021/11/04 14:08:35;;;;;;;10.80;7.50;;;10.10;99.90;;;;;;5082308;28;20044;-80
2021/11/04 14:11:16;;;;;;;11.00;8.68;;;10.10;99.90;;;;;;5074487;28;20041;-80
2021/11/04 14:13:53;;;;;;;11.90;8.18;;;10.00;99.90;;;;;;5073861;28;20032;-80
2021/11/04 14:16:26;;;;;;;10.00;7.70;;;10.00;99.90;;;;;;5086274;28;20099;-80
2021/11/04 14:19:01;;;;;;;11.90;7.95;;;10.00;99.90;;;;;;5086883;28;20031;-89
2021/11/04 14:21:29;;;;;;;13.70;8.88;;;10.10;99.90;;;;;;5079273;28;20039;-88
2021/11/04 14:23:58;;;;;;;12.52;9.38;;;10.00;99.90;;;;;;5080434;28;20046;-80
2021/11/04 14:26:25;;;;;;;12.05;9.10;;;10.20;99.90;;;;;;5059841;28;20449;-80
2021/11/04 14:28:55;;;;;;;12.45;9.60;;;10.10;99.90;;;;;;5065149;28;20474;-80
2021/11/04 14:31:22;;;;;;;14.20;10.27;;;10.30;99.90;;;;;;5068573;28;20055;-80
2021/11/04 14:33:56;;;;;;;17.60;11.00;;;10.00;99.90;;;;;;5059088;28;20028;-80
2021/11/04 14:36:30;;;;;;;13.70;10.30;;;10.20;99.90;;;;;;5079951;28;20115;-80
2021/11/04 14:38:59;;;;;;;13.93;11.05;;;10.40;99.90;;;;;;5087388;28;20040;-80
2021/11/04 14:41:25;;;;;;;15.25;11.10;;;10.40;99.90;;;;;;5085328;28;20087;-80
2021/11/04 14:43:54;;;;;;;18.60;11.82;;;9.90;99.90;;;;;;5071515;28;20531;-80
2021/11/04 14:46:20;;;;;;;15.98;11.38;;;9.90;99.90;;;;;;5065816;28;20089;-80
2021/11/04 14:48:49;;;;;;;19.30;12.40;;;9.90;99.90;;;;;;5077600;28;20049;-80
2021/11/04 14:51:24;;;;;;;17.05;12.68;;;9.90;99.90;;;;;;5091911;28;20043;-80
2021/11/04 14:54:04;;;;;;;18.58;12.95;;;9.90;99.90;;;;;;5072908;28;20506;-80
2021/11/04 14:56:45;;;;;;;18.60;12.88;;;10.10;99.90;;;;;;5067314;28;20049;-82
2021/11/04 14:59:16;;;;;;;18.73;12.95;;;10.30;99.90;;;;;;5059315;28;20040;-81